sensor_id;sensor_type;location;lat;lon;timestamp;pressure;altitude;pressure_sealevel;temperature;humidity
13695;BME280;6919;52.344;14.518;2023-12-28T00:00:52;100384.13;;;3.98;100.00
13695;BME280;6919;52.344;14.518;2023-12-28T00:03:21;100378.81;;;3.98;100.00
13695;BME280;6919;52.344;14.518;2023-12-28T00:05:49;100388.56;;;3.98;100.00
13695;BME280;6919;52.344;14.518;2023-12-28T00:08:17;100390.88;;;4.02;100.00
13695;BME280;6919;52.344;14.518;2023-12-28T00:10:46;100385.09;;;4.08;100.00
13695;BME280;6919;52.344;14.518;2023-12-28T00:13:14;100380.41;;;4.12;100.00
13695;BME280;6919;52.344;14.518;2023-12-28T00:15:44;100378.44;;;4.14;100.00
13695;BME280;6919;52.344;14.518;2023-12-28T00:18:12;100378.84;;;4.09;100.00
13695;BME280;6919;52.344;14.518;2023-12-28T00:20:41;100372.53;;;3.99;100.00
13695;BME280;6919;52.344;14.518;2023-12-28T00:23:09;100376.53;;;4.05;100.00
13695;BME280;6919;52.344;14.518;2023-12-28T00:25:38;100371.69;;;3.99;100.00
13695;BME280;6919;52.344;14.518;2023-12-28T00:28:06;100371.09;;;4.06;100.00
13695;BME280;6919;52.344;14.518;2023-12-28T00:30:34;100367.47;;;3.96;100.00
13695;BME280;6919;52.344;14.518;2023-12-28T00:33:05;100350.34;;;4.00;100.00
13695;BME280;6919;52.344;14.518;2023-12-28T00:35:33;100346.84;;;4.00;100.00
13695;BME280;6919;52.344;14.518;2023-12-28T00:38:01;100330.69;;;4.03;100.00
13695;BME280;6919;52.344;14.518;2023-12-28T00:40:30;100329.25;;;3.99;100.00
13695;BME280;6919;52.344;14.518;2023-12-28T00:42:58;100322.16;;;3.99;100.00
13695;BME280;6919;52.344;14.518;2023-12-28T00:45:26;100316.59;;;4.02;100.00
13695;BME280;6919;52.344;14.518;2023-12-28T00:47:54;100316.97;;;3.98;100.00
13695;BME280;6919;52.344;14.518;2023-12-28T00:50:26;100323.59;;;3.92;100.00
13695;BME280;6919;52.344;14.518;2023-12-28T00:52:58;100324.69;;;3.90;100.00
13695;BME280;6919;52.344;14.518;2023-12-28T00:55:27;100309.34;;;3.93;100.00
13695;BME280;6919;52.344;14.518;2023-12-28T00:57:55;100310.91;;;3.96;100.00
13695;BME280;6919;52.344;14.518;2023-12-28T01:00:24;100317.44;;;4.03;100.00
13695;BME280;6919;52.344;14.518;2023-12-28T01:02:52;100315.16;;;3.98;100.00
13695;BME280;6919;52.344;14.518;2023-12-28T01:05:21;100308.66;;;4.02;100.00
13695;BME280;6919;52.344;14.518;2023-12-28T01:07:50;100290.56;;;3.96;100.00
13695;BME280;6919;52.344;14.518;2023-12-28T01:10:19;100286.34;;;4.05;100.00
13695;BME280;6919;52.344;14.518;2023-12-28T01:12:47;100286.09;;;3.97;100.00
13695;BME280;6919;52.344;14.518;2023-12-28T01:15:16;100280.69;;;4.09;100.00
13695;BME280;6919;52.344;14.518;2023-12-28T01:17:45;100283.06;;;4.01;100.00
13695;BME280;6919;52.344;14.518;2023-12-28T01:20:14;100267.66;;;4.06;100.00
13695;BME280;6919;52.344;14.518;2023-12-28T01:22:42;100275.59;;;4.06;100.00
13695;BME280;6919;52.344;14.518;2023-12-28T01:25:12;100275.13;;;4.12;100.00
13695;BME280;6919;52.344;14.518;2023-12-28T01:27:40;100262.81;;;4.00;100.00
13695;BME280;6919;52.344;14.518;2023-12-28T01:30:09;100251.84;;;4.05;100.00
13695;BME280;6919;52.344;14.518;2023-12-28T01:32:38;100244.34;;;4.10;100.00
13695;BME280;6919;52.344;14.518;2023-12-28T01:35:07;100244.13;;;4.13;100.00
13695;BME280;6919;52.344;14.518;2023-12-28T01:37:35;100234.69;;;4.31;100.00
13695;BME280;6919;52.344;14.518;2023-12-28T01:40:05;100238.19;;;4.31;100.00
13695;BME280;6919;52.344;14.518;2023-12-28T01:42:35;100239.88;;;4.32;100.00
13695;BME280;6919;52.344;14.518;2023-12-28T01:45:05;100227.81;;;4.28;100.00
13695;BME280;6919;52.344;14.518;2023-12-28T01:47:34;100221.16;;;4.34;100.00
13695;BME280;6919;52.344;14.518;2023-12-28T01:50:04;100219.63;;;4.31;100.00
13695;BME280;6919;52.344;14.518;2023-12-28T01:52:34;100218.53;;;4.23;100.00
13695;BME280;6919;52.344;14.518;2023-12-28T01:55:05;100229.88;;;4.25;100.00
13695;BME280;6919;52.344;14.518;2023-12-28T01:57:35;100227.34;;;4.23;100.00
13695;BME280;6919;52.344;14.518;2023-12-28T02:00:05;100232.41;;;4.15;100.00
13695;BME280;6919;52.344;14.518;2023-12-28T02:02:34;100219.00;;;4.28;100.00
13695;BME280;6919;52.344;14.518;2023-12-28T02:05:05;100225.91;;;4.30;100.00
13695;BME280;6919;52.344;14.518;2023-12-28T02:07:36;100222.28;;;4.31;100.00
13695;BME280;6919;52.344;14.518;2023-12-28T02:10:06;100224.81;;;4.33;100.00
13695;BME280;6919;52.344;14.518;2023-12-28T02:12:36;100235.53;;;4.31;100.00
13695;BME280;6919;52.344;14.518;2023-12-28T02:15:06;100234.47;;;4.23;100.00
13695;BME280;6919;52.344;14.518;2023-12-28T02:17:44;100232.06;;;4.20;100.00
13695;BME280;6919;52.344;14.518;2023-12-28T02:20:16;100232.41;;;4.15;100.00
13695;BME280;6919;52.344;14.518;2023-12-28T02:22:48;100222.19;;;4.11;100.00
13695;BME280;6919;52.344;14.518;2023-12-28T02:25:18;100213.25;;;4.12;100.00
13695;BME280;6919;52.344;14.518;2023-12-28T02:27:48;100221.09;;;4.13;100.00
13695;BME280;6919;52.344;14.518;2023-12-28T02:30:21;100210.38;;;4.04;100.00
13695;BME280;6919;52.344;14.518;2023-12-28T02:33:01;100210.25;;;4.05;100.00
13695;BME280;6919;52.344;14.518;2023-12-28T02:35:42;100206.16;;;4.12;100.00
13695;BME280;6919;52.344;14.518;2023-12-28T02:38:13;100203.09;;;4.17;100.00
13695;BME280;6919;52.344;14.518;2023-12-28T02:40:44;100193.81;;;4.22;100.00
13695;BME280;6919;52.344;14.518;2023-12-28T02:43:13;100200.28;;;4.40;100.00
13695;BME280;6919;52.344;14.518;2023-12-28T02:45:42;100200.81;;;4.66;100.00
13695;BME280;6919;52.344;14.518;2023-12-28T02:48:10;100196.31;;;4.98;100.00
13695;BME280;6919;52.344;14.518;2023-12-28T02:50:39;100180.66;;;5.15;100.00
13695;BME280;6919;52.344;14.518;2023-12-28T02:53:07;100166.34;;;5.37;100.00
13695;BME280;6919;52.344;14.518;2023-12-28T02:55:35;100168.34;;;5.44;100.00
13695;BME280;6919;52.344;14.518;2023-12-28T02:58:05;100173.22;;;5.69;100.00
13695;BME280;6919;52.344;14.518;2023-12-28T03:00:33;100170.22;;;5.83;100.00
13695;BME280;6919;52.344;14.518;2023-12-28T03:03:04;100170.28;;;6.02;100.00
13695;BME280;6919;52.344;14.518;2023-12-28T03:05:32;100167.88;;;5.99;100.00
13695;BME280;6919;52.344;14.518;2023-12-28T03:08:01;100191.78;;;6.20;100.00
13695;BME280;6919;52.344;14.518;2023-12-28T03:10:29;100186.88;;;6.25;100.00
13695;BME280;6919;52.344;14.518;2023-12-28T03:12:57;100189.13;;;6.39;100.00
13695;BME280;6919;52.344;14.518;2023-12-28T03:15:27;100193.38;;;6.51;100.00
13695;BME280;6919;52.344;14.518;2023-12-28T03:17:55;100184.94;;;6.56;100.00
13695;BME280;6919;52.344;14.518;2023-12-28T03:20:24;100199.97;;;6.66;100.00
13695;BME280;6919;52.344;14.518;2023-12-28T03:22:53;100185.94;;;6.64;100.00
13695;BME280;6919;52.344;14.518;2023-12-28T03:25:22;100198.44;;;6.64;100.00
13695;BME280;6919;52.344;14.518;2023-12-28T03:27:51;100185.38;;;6.61;100.00
13695;BME280;6919;52.344;14.518;2023-12-28T03:30:19;100188.78;;;6.72;100.00
13695;BME280;6919;52.344;14.518;2023-12-28T03:32:49;100194.50;;;6.68;100.00
13695;BME280;6919;52.344;14.518;2023-12-28T03:35:17;100186.25;;;6.71;100.00
13695;BME280;6919;52.344;14.518;2023-12-28T03:37:46;100189.72;;;6.81;100.00
13695;BME280;6919;52.344;14.518;2023-12-28T03:40:14;100199.56;;;6.90;100.00
13695;BME280;6919;52.344;14.518;2023-12-28T03:42:46;100189.16;;;6.87;100.00
13695;BME280;6919;52.344;14.518;2023-12-28T03:45:14;100195.34;;;6.97;100.00
13695;BME280;6919;52.344;14.518;2023-12-28T03:47:43;100192.41;;;7.00;100.00
13695;BME280;6919;52.344;14.518;2023-12-28T03:50:12;100188.03;;;7.08;100.00
13695;BME280;6919;52.344;14.518;2023-12-28T03:52:41;100181.31;;;7.14;100.00
13695;BME280;6919;52.344;14.518;2023-12-28T03:55:09;100173.03;;;7.17;100.00
13695;BME280;6919;52.344;14.518;2023-12-28T03:57:37;100162.22;;;7.18;100.00
13695;BME280;6919;52.344;14.518;2023-12-28T04:00:08;100165.00;;;7.26;100.00
13695;BME280;6919;52.344;14.518;2023-12-28T04:02:36;100162.44;;;7.34;100.00
13695;BME280;6919;52.344;14.518;2023-12-28T04:05:05;100171.97;;;7.37;100.00
13695;BME280;6919;52.344;14.518;2023-12-28T04:07:35;100175.25;;;7.31;100.00
13695;BME280;6919;52.344;14.518;2023-12-28T04:10:05;100171.28;;;7.44;100.00
13695;BME280;6919;52.344;14.518;2023-12-28T04:12:33;100183.06;;;7.42;100.00
13695;BME280;6919;52.344;14.518;2023-12-28T04:15:02;100182.63;;;7.46;100.00
13695;BME280;6919;52.344;14.518;2023-12-28T04:17:30;100177.13;;;7.48;100.00
13695;BME280;6919;52.344;14.518;2023-12-28T04:19:58;100177.00;;;7.49;100.00
13695;BME280;6919;52.344;14.518;2023-12-28T04:22:27;100187.53;;;7.51;100.00
13695;BME280;6919;52.344;14.518;2023-12-28T04:24:56;100191.47;;;7.47;100.00
13695;BME280;6919;52.344;14.518;2023-12-28T04:27:25;100188.13;;;7.45;100.00
13695;BME280;6919;52.344;14.518;2023-12-28T04:29:53;100197.38;;;7.41;100.00
13695;BME280;6919;52.344;14.518;2023-12-28T04:32:21;100204.13;;;7.35;100.00
13695;BME280;6919;52.344;14.518;2023-12-28T04:34:51;100206.81;;;7.26;100.00
13695;BME280;6919;52.344;14.518;2023-12-28T04:37:19;100201.47;;;7.26;100.00
13695;BME280;6919;52.344;14.518;2023-12-28T04:39:48;100198.00;;;6.97;100.00
13695;BME280;6919;52.344;14.518;2023-12-28T04:42:17;100188.50;;;6.85;100.00
13695;BME280;6919;52.344;14.518;2023-12-28T04:44:45;100180.47;;;6.75;100.00
13695;BME280;6919;52.344;14.518;2023-12-28T04:47:14;100184.13;;;6.74;100.00
13695;BME280;6919;52.344;14.518;2023-12-28T04:49:42;100187.78;;;6.83;100.00
13695;BME280;6919;52.344;14.518;2023-12-28T04:52:10;100183.28;;;6.93;100.00
13695;BME280;6919;52.344;14.518;2023-12-28T04:54:40;100188.88;;;6.99;100.00
13695;BME280;6919;52.344;14.518;2023-12-28T04:57:09;100189.75;;;7.00;100.00
13695;BME280;6919;52.344;14.518;2023-12-28T04:59:40;100192.66;;;7.06;100.00
13695;BME280;6919;52.344;14.518;2023-12-28T05:02:08;100180.72;;;7.10;100.00
13695;BME280;6919;52.344;14.518;2023-12-28T05:04:37;100192.78;;;7.14;100.00
13695;BME280;6919;52.344;14.518;2023-12-28T05:07:06;100200.38;;;7.19;100.00
13695;BME280;6919;52.344;14.518;2023-12-28T05:09:35;100203.16;;;7.27;100.00
13695;BME280;6919;52.344;14.518;2023-12-28T05:12:05;100199.25;;;7.31;100.00
13695;BME280;6919;52.344;14.518;2023-12-28T05:14:33;100208.34;;;7.28;100.00
13695;BME280;6919;52.344;14.518;2023-12-28T05:17:03;100220.72;;;7.29;100.00
13695;BME280;6919;52.344;14.518;2023-12-28T05:19:31;100222.66;;;7.37;100.00
13695;BME280;6919;52.344;14.518;2023-12-28T05:22:00;100226.72;;;7.41;100.00
13695;BME280;6919;52.344;14.518;2023-12-28T05:24:30;100224.59;;;7.54;100.00
13695;BME280;6919;52.344;14.518;2023-12-28T05:26:59;100229.25;;;7.52;100.00
13695;BME280;6919;52.344;14.518;2023-12-28T05:29:27;100239.03;;;7.61;100.00
13695;BME280;6919;52.344;14.518;2023-12-28T05:31:55;100237.75;;;7.65;100.00
13695;BME280;6919;52.344;14.518;2023-12-28T05:34:25;100241.53;;;7.72;100.00
13695;BME280;6919;52.344;14.518;2023-12-28T05:36:54;100235.91;;;7.75;100.00
13695;BME280;6919;52.344;14.518;2023-12-28T05:39:22;100243.63;;;7.78;100.00
13695;BME280;6919;52.344;14.518;2023-12-28T05:41:50;100250.78;;;7.77;100.00
13695;BME280;6919;52.344;14.518;2023-12-28T05:44:18;100252.44;;;7.88;100.00
13695;BME280;6919;52.344;14.518;2023-12-28T05:46:47;100251.06;;;7.84;100.00
13695;BME280;6919;52.344;14.518;2023-12-28T05:49:16;100240.25;;;7.85;100.00
13695;BME280;6919;52.344;14.518;2023-12-28T05:51:45;100235.16;;;7.92;100.00
13695;BME280;6919;52.344;14.518;2023-12-28T05:54:14;100235.81;;;7.94;100.00
13695;BME280;6919;52.344;14.518;2023-12-28T05:56:42;100232.19;;;7.95;100.00
13695;BME280;6919;52.344;14.518;2023-12-28T05:59:11;100239.44;;;8.02;100.00
13695;BME280;6919;52.344;14.518;2023-12-28T06:01:42;100244.13;;;8.00;100.00
13695;BME280;6919;52.344;14.518;2023-12-28T06:04:11;100248.69;;;8.08;100.00
13695;BME280;6919;52.344;14.518;2023-12-28T06:06:40;100250.13;;;8.12;100.00
13695;BME280;6919;52.344;14.518;2023-12-28T06:09:09;100251.09;;;8.11;100.00
13695;BME280;6919;52.344;14.518;2023-12-28T06:11:39;100257.81;;;8.15;100.00
13695;BME280;6919;52.344;14.518;2023-12-28T06:14:07;100268.19;;;8.18;100.00
13695;BME280;6919;52.344;14.518;2023-12-28T06:16:35;100265.94;;;8.32;100.00
13695;BME280;6919;52.344;14.518;2023-12-28T06:19:04;100275.38;;;8.27;100.00
13695;BME280;6919;52.344;14.518;2023-12-28T06:21:33;100274.09;;;8.31;100.00
13695;BME280;6919;52.344;14.518;2023-12-28T06:24:02;100271.72;;;8.28;100.00
13695;BME280;6919;52.344;14.518;2023-12-28T06:26:32;100281.03;;;8.41;100.00
13695;BME280;6919;52.344;14.518;2023-12-28T06:29:00;100288.81;;;8.35;100.00
13695;BME280;6919;52.344;14.518;2023-12-28T06:31:28;100286.28;;;8.33;100.00
13695;BME280;6919;52.344;14.518;2023-12-28T06:33:56;100293.88;;;8.38;100.00
13695;BME280;6919;52.344;14.518;2023-12-28T06:36:26;100296.94;;;8.43;100.00
13695;BME280;6919;52.344;14.518;2023-12-28T06:38:54;100301.59;;;8.41;100.00
13695;BME280;6919;52.344;14.518;2023-12-28T06:41:22;100300.69;;;8.50;100.00
13695;BME280;6919;52.344;14.518;2023-12-28T06:43:53;100303.38;;;8.50;100.00
13695;BME280;6919;52.344;14.518;2023-12-28T06:46:21;100301.41;;;8.52;100.00
13695;BME280;6919;52.344;14.518;2023-12-28T06:48:50;100307.88;;;8.49;100.00
13695;BME280;6919;52.344;14.518;2023-12-28T06:51:19;100304.38;;;8.49;100.00
13695;BME280;6919;52.344;14.518;2023-12-28T06:53:48;100308.41;;;8.53;100.00
13695;BME280;6919;52.344;14.518;2023-12-28T06:56:17;100304.94;;;8.43;100.00
13695;BME280;6919;52.344;14.518;2023-12-28T06:58:45;100313.53;;;8.46;100.00
13695;BME280;6919;52.344;14.518;2023-12-28T07:01:15;100317.22;;;8.63;100.00
13695;BME280;6919;52.344;14.518;2023-12-28T07:03:44;100316.56;;;8.51;100.00
13695;BME280;6919;52.344;14.518;2023-12-28T07:06:14;100316.06;;;8.48;100.00
13695;BME280;6919;52.344;14.518;2023-12-28T07:08:42;100305.38;;;8.48;100.00
13695;BME280;6919;52.344;14.518;2023-12-28T07:11:12;100321.47;;;8.56;100.00
13695;BME280;6919;52.344;14.518;2023-12-28T07:13:40;100310.66;;;8.57;100.00
13695;BME280;6919;52.344;14.518;2023-12-28T07:16:08;100313.47;;;8.56;100.00
13695;BME280;6919;52.344;14.518;2023-12-28T07:18:38;100302.94;;;8.54;100.00
13695;BME280;6919;52.344;14.518;2023-12-28T07:21:07;100318.53;;;8.59;100.00
13695;BME280;6919;52.344;14.518;2023-12-28T07:23:37;100309.28;;;8.53;100.00
13695;BME280;6919;52.344;14.518;2023-12-28T07:26:06;100317.72;;;8.49;100.00
13695;BME280;6919;52.344;14.518;2023-12-28T07:28:34;100324.25;;;8.64;100.00
13695;BME280;6919;52.344;14.518;2023-12-28T07:31:03;100320.19;;;8.60;100.00
13695;BME280;6919;52.344;14.518;2023-12-28T07:33:31;100318.81;;;8.56;100.00
13695;BME280;6919;52.344;14.518;2023-12-28T07:36:01;100326.78;;;8.65;100.00
13695;BME280;6919;52.344;14.518;2023-12-28T07:38:30;100328.41;;;8.49;100.00
13695;BME280;6919;52.344;14.518;2023-12-28T07:40:59;100342.47;;;8.51;100.00
13695;BME280;6919;52.344;14.518;2023-12-28T07:43:27;100345.25;;;8.59;100.00
13695;BME280;6919;52.344;14.518;2023-12-28T07:45:55;100344.38;;;8.58;100.00
13695;BME280;6919;52.344;14.518;2023-12-28T07:48:23;100354.75;;;8.71;100.00
13695;BME280;6919;52.344;14.518;2023-12-28T07:50:52;100353.78;;;8.62;100.00
13695;BME280;6919;52.344;14.518;2023-12-28T07:53:22;100358.91;;;8.56;100.00
13695;BME280;6919;52.344;14.518;2023-12-28T07:55:50;100362.56;;;8.55;100.00
13695;BME280;6919;52.344;14.518;2023-12-28T07:58:18;100362.94;;;8.60;100.00
13695;BME280;6919;52.344;14.518;2023-12-28T08:00:47;100359.00;;;8.64;100.00
13695;BME280;6919;52.344;14.518;2023-12-28T08:03:16;100366.88;;;8.65;100.00
13695;BME280;6919;52.344;14.518;2023-12-28T08:05:45;100372.06;;;8.67;100.00
13695;BME280;6919;52.344;14.518;2023-12-28T08:08:13;100374.06;;;8.65;100.00
13695;BME280;6919;52.344;14.518;2023-12-28T08:10:43;100368.28;;;8.60;100.00
13695;BME280;6919;52.344;14.518;2023-12-28T08:13:11;100357.03;;;8.66;100.00
13695;BME280;6919;52.344;14.518;2023-12-28T08:15:39;100366.03;;;8.65;100.00
13695;BME280;6919;52.344;14.518;2023-12-28T08:18:07;100379.78;;;8.70;100.00
13695;BME280;6919;52.344;14.518;2023-12-28T08:20:36;100372.06;;;8.67;100.00
13695;BME280;6919;52.344;14.518;2023-12-28T08:23:05;100366.72;;;8.67;100.00
13695;BME280;6919;52.344;14.518;2023-12-28T08:25:45;100374.16;;;8.73;100.00
13695;BME280;6919;52.344;14.518;2023-12-28T08:28:13;100369.13;;;8.87;100.00
13695;BME280;6919;52.344;14.518;2023-12-28T08:30:41;100366.00;;;8.74;100.00
13695;BME280;6919;52.344;14.518;2023-12-28T08:33:09;100375.69;;;8.75;100.00
13695;BME280;6919;52.344;14.518;2023-12-28T08:35:38;100382.28;;;8.81;100.00
13695;BME280;6919;52.344;14.518;2023-12-28T08:38:06;100382.97;;;8.83;100.00
13695;BME280;6919;52.344;14.518;2023-12-28T08:40:35;100378.31;;;8.85;100.00
13695;BME280;6919;52.344;14.518;2023-12-28T08:43:05;100392.56;;;8.76;100.00
13695;BME280;6919;52.344;14.518;2023-12-28T08:45:33;100391.44;;;8.78;100.00
13695;BME280;6919;52.344;14.518;2023-12-28T08:48:04;100397.47;;;8.80;100.00
13695;BME280;6919;52.344;14.518;2023-12-28T08:50:32;100402.97;;;8.79;100.00
13695;BME280;6919;52.344;14.518;2023-12-28T08:53:00;100401.72;;;8.73;100.00
13695;BME280;6919;52.344;14.518;2023-12-28T08:55:29;100413.25;;;8.74;100.00
13695;BME280;6919;52.344;14.518;2023-12-28T08:57:57;100417.59;;;8.84;100.00
13695;BME280;6919;52.344;14.518;2023-12-28T09:00:28;100419.13;;;8.87;100.00
13695;BME280;6919;52.344;14.518;2023-12-28T09:02:56;100422.75;;;8.86;100.00
13695;BME280;6919;52.344;14.518;2023-12-28T09:05:24;100415.81;;;8.93;100.00
13695;BME280;6919;52.344;14.518;2023-12-28T09:07:53;100429.19;;;8.93;100.00
13695;BME280;6919;52.344;14.518;2023-12-28T09:10:21;100430.63;;;8.97;100.00
13695;BME280;6919;52.344;14.518;2023-12-28T09:12:49;100429.91;;;8.95;100.00
13695;BME280;6919;52.344;14.518;2023-12-28T09:15:18;100427.47;;;9.01;100.00
13695;BME280;6919;52.344;14.518;2023-12-28T09:17:48;100430.00;;;9.03;100.00
13695;BME280;6919;52.344;14.518;2023-12-28T09:20:18;100431.09;;;9.10;100.00
13695;BME280;6919;52.344;14.518;2023-12-28T09:22:46;100429.03;;;9.04;100.00
13695;BME280;6919;52.344;14.518;2023-12-28T09:25:20;100429.13;;;9.12;100.00
13695;BME280;6919;52.344;14.518;2023-12-28T09:27:48;100428.03;;;9.05;100.00
13695;BME280;6919;52.344;14.518;2023-12-28T09:30:17;100430.25;;;9.10;100.00
13695;BME280;6919;52.344;14.518;2023-12-28T09:32:47;100432.22;;;9.07;100.00
13695;BME280;6919;52.344;14.518;2023-12-28T09:35:15;100422.38;;;9.08;100.00
13695;BME280;6919;52.344;14.518;2023-12-28T09:37:44;100423.56;;;9.23;100.00
13695;BME280;6919;52.344;14.518;2023-12-28T09:40:14;100425.16;;;9.16;100.00
13695;BME280;6919;52.344;14.518;2023-12-28T09:42:56;100432.19;;;9.17;100.00
13695;BME280;6919;52.344;14.518;2023-12-28T09:45:25;100425.22;;;9.24;100.00
13695;BME280;6919;52.344;14.518;2023-12-28T09:47:55;100430.59;;;9.24;100.00
13695;BME280;6919;52.344;14.518;2023-12-28T09:50:24;100428.69;;;9.34;100.00
13695;BME280;6919;52.344;14.518;2023-12-28T09:52:53;100424.66;;;9.30;100.00
13695;BME280;6919;52.344;14.518;2023-12-28T09:55:22;100422.75;;;9.40;100.00
13695;BME280;6919;52.344;14.518;2023-12-28T09:57:52;100422.69;;;9.32;100.00
13695;BME280;6919;52.344;14.518;2023-12-28T10:00:21;100418.22;;;9.41;100.00
13695;BME280;6919;52.344;14.518;2023-12-28T10:02:50;100419.78;;;9.43;100.00
13695;BME280;6919;52.344;14.518;2023-12-28T10:05:20;100414.09;;;9.46;100.00
13695;BME280;6919;52.344;14.518;2023-12-28T10:07:50;100419.25;;;9.57;100.00
13695;BME280;6919;52.344;14.518;2023-12-28T10:10:18;100421.00;;;9.66;100.00
13695;BME280;6919;52.344;14.518;2023-12-28T10:12:49;100415.81;;;9.65;100.00
13695;BME280;6919;52.344;14.518;2023-12-28T10:15:18;100420.56;;;9.71;100.00
13695;BME280;6919;52.344;14.518;2023-12-28T10:17:46;100415.19;;;9.71;100.00
13695;BME280;6919;52.344;14.518;2023-12-28T10:20:15;100422.38;;;9.70;100.00
13695;BME280;6919;52.344;14.518;2023-12-28T10:22:45;100426.06;;;9.69;100.00
13695;BME280;6919;52.344;14.518;2023-12-28T10:25:13;100418.03;;;9.69;100.00
13695;BME280;6919;52.344;14.518;2023-12-28T10:27:42;100418.25;;;9.76;100.00
13695;BME280;6919;52.344;14.518;2023-12-28T10:30:12;100419.47;;;9.64;100.00
13695;BME280;6919;52.344;14.518;2023-12-28T10:32:41;100429.03;;;9.66;100.00
13695;BME280;6919;52.344;14.518;2023-12-28T10:35:10;100422.00;;;9.65;100.00
13695;BME280;6919;52.344;14.518;2023-12-28T10:37:41;100420.84;;;9.68;100.00
13695;BME280;6919;52.344;14.518;2023-12-28T10:40:14;100414.91;;;9.74;100.00
13695;BME280;6919;52.344;14.518;2023-12-28T10:42:51;100400.44;;;9.67;100.00
13695;BME280;6919;52.344;14.518;2023-12-28T10:45:25;100410.75;;;9.62;100.00
13695;BME280;6919;52.344;14.518;2023-12-28T10:48:02;100409.00;;;9.70;100.00
13695;BME280;6919;52.344;14.518;2023-12-28T10:50:39;100406.25;;;9.62;100.00
13695;BME280;6919;52.344;14.518;2023-12-28T10:53:32;100412.97;;;9.66;100.00
13695;BME280;6919;52.344;14.518;2023-12-28T10:56:16;100401.09;;;9.69;100.00
13695;BME280;6919;52.344;14.518;2023-12-28T10:58:51;100404.19;;;9.74;100.00
13695;BME280;6919;52.344;14.518;2023-12-28T11:01:27;100406.94;;;9.64;100.00
13695;BME280;6919;52.344;14.518;2023-12-28T11:04:15;100399.59;;;9.66;100.00
13695;BME280;6919;52.344;14.518;2023-12-28T11:06:48;100412.91;;;9.58;100.00
13695;BME280;6919;52.344;14.518;2023-12-28T11:09:18;100409.94;;;9.61;100.00
13695;BME280;6919;52.344;14.518;2023-12-28T11:11:51;100410.44;;;9.65;100.00
13695;BME280;6919;52.344;14.518;2023-12-28T11:14:20;100412.06;;;9.75;100.00
13695;BME280;6919;52.344;14.518;2023-12-28T11:16:49;100404.03;;;9.75;100.00
13695;BME280;6919;52.344;14.518;2023-12-28T11:19:18;100411.44;;;9.81;100.00
13695;BME280;6919;52.344;14.518;2023-12-28T11:21:49;100397.19;;;9.98;100.00
13695;BME280;6919;52.344;14.518;2023-12-28T11:24:18;100402.84;;;9.95;100.00
13695;BME280;6919;52.344;14.518;2023-12-28T11:26:53;100406.84;;;9.91;100.00
13695;BME280;6919;52.344;14.518;2023-12-28T11:29:23;100400.56;;;10.00;100.00
13695;BME280;6919;52.344;14.518;2023-12-28T11:31:52;100396.88;;;10.01;100.00
13695;BME280;6919;52.344;14.518;2023-12-28T11:34:25;100397.44;;;10.05;100.00
13695;BME280;6919;52.344;14.518;2023-12-28T11:36:56;100392.31;;;10.11;100.00
13695;BME280;6919;52.344;14.518;2023-12-28T11:39:31;100382.19;;;10.05;100.00
13695;BME280;6919;52.344;14.518;2023-12-28T11:42:04;100386.78;;;10.13;100.00
13695;BME280;6919;52.344;14.518;2023-12-28T11:44:39;100392.00;;;10.14;100.00
13695;BME280;6919;52.344;14.518;2023-12-28T11:47:12;100385.19;;;10.20;100.00
13695;BME280;6919;52.344;14.518;2023-12-28T11:49:41;100380.00;;;10.26;100.00
13695;BME280;6919;52.344;14.518;2023-12-28T11:52:24;100353.22;;;10.26;100.00
13695;BME280;6919;52.344;14.518;2023-12-28T11:54:53;100381.53;;;10.29;100.00
13695;BME280;6919;52.344;14.518;2023-12-28T11:57:23;100378.16;;;10.19;100.00
13695;BME280;6919;52.344;14.518;2023-12-28T11:59:55;100390.72;;;10.26;100.00
13695;BME280;6919;52.344;14.518;2023-12-28T12:02:25;100388.06;;;10.26;100.00
13695;BME280;6919;52.344;14.518;2023-12-28T12:04:56;100379.69;;;10.29;100.00
13695;BME280;6919;52.344;14.518;2023-12-28T12:07:25;100386.75;;;10.30;100.00
13695;BME280;6919;52.344;14.518;2023-12-28T12:09:57;100390.00;;;10.42;100.00
13695;BME280;6919;52.344;14.518;2023-12-28T12:12:28;100389.16;;;10.41;100.00
13695;BME280;6919;52.344;14.518;2023-12-28T12:14:58;100392.38;;;10.45;100.00
13695;BME280;6919;52.344;14.518;2023-12-28T12:17:27;100380.88;;;10.52;100.00
13695;BME280;6919;52.344;14.518;2023-12-28T12:19:55;100377.50;;;10.50;100.00
13695;BME280;6919;52.344;14.518;2023-12-28T12:22:25;100379.16;;;10.51;100.00
13695;BME280;6919;52.344;14.518;2023-12-28T12:24:59;100368.75;;;10.48;100.00
13695;BME280;6919;52.344;14.518;2023-12-28T12:27:32;100379.38;;;10.58;100.00
13695;BME280;6919;52.344;14.518;2023-12-28T12:30:01;100374.22;;;10.64;100.00
13695;BME280;6919;52.344;14.518;2023-12-28T12:32:30;100364.44;;;10.55;100.00
13695;BME280;6919;52.344;14.518;2023-12-28T12:35:00;100360.78;;;10.56;100.00
13695;BME280;6919;52.344;14.518;2023-12-28T12:37:29;100367.50;;;10.60;100.00
13695;BME280;6919;52.344;14.518;2023-12-28T12:39:58;100358.69;;;10.76;100.00
13695;BME280;6919;52.344;14.518;2023-12-28T12:42:27;100347.28;;;10.74;100.00
13695;BME280;6919;52.344;14.518;2023-12-28T12:44:57;100355.31;;;10.74;100.00
13695;BME280;6919;52.344;14.518;2023-12-28T12:47:26;100351.59;;;10.67;100.00
13695;BME280;6919;52.344;14.518;2023-12-28T12:50:00;100342.09;;;10.80;100.00
13695;BME280;6919;52.344;14.518;2023-12-28T12:52:29;100334.56;;;10.76;100.00
13695;BME280;6919;52.344;14.518;2023-12-28T12:54:58;100334.56;;;10.76;100.00
13695;BME280;6919;52.344;14.518;2023-12-28T12:57:30;100331.81;;;10.68;100.00
13695;BME280;6919;52.344;14.518;2023-12-28T13:00:00;100331.38;;;10.80;100.00